createdAt,value
2019-02-26T00:00:19.520Z,10.05
2019-02-26T00:02:50.654Z,10.58
2019-02-26T00:04:05.686Z,10.48
2019-02-26T00:05:21.434Z,10.60
2019-02-26T00:06:33.951Z,9.68
2019-02-26T00:07:49.501Z,11.30
2019-02-26T00:09:03.786Z,11.15
2019-02-26T00:10:17.345Z,11.93
2019-02-26T00:11:31.414Z,11.68
2019-02-26T00:12:45.562Z,11.73
2019-02-26T00:13:59.051Z,10.90
2019-02-26T00:15:12.640Z,11.03
2019-02-26T00:16:25.876Z,10.98
2019-02-26T00:17:41.200Z,11.95
2019-02-26T00:19:00.784Z,11.03
2019-02-26T00:20:12.803Z,11.55
2019-02-26T00:21:28.280Z,10.63
2019-02-26T00:22:41.378Z,10.88
2019-02-26T00:23:54.620Z,10.95
2019-02-26T00:25:10.235Z,10.85
2019-02-26T00:26:24.145Z,11.88
2019-02-26T00:27:37.362Z,11.35
2019-02-26T00:28:52.359Z,11.38
2019-02-26T00:30:14.335Z,11.25
2019-02-26T00:32:41.382Z,11.33
2019-02-26T00:33:55.963Z,11.12
2019-02-26T00:35:09.190Z,11.60
2019-02-26T00:36:22.420Z,10.80
2019-02-26T00:37:36.681Z,11.28
2019-02-26T00:38:49.921Z,10.32
2019-02-26T00:40:03.785Z,10.13
2019-02-26T00:41:20.308Z,9.83
2019-02-26T00:42:33.820Z,10.72
2019-02-26T00:43:47.136Z,11.30
2019-02-26T00:45:03.350Z,10.10
2019-02-26T00:46:17.024Z,11.50
2019-02-26T00:47:33.836Z,10.95
2019-02-26T00:48:45.249Z,10.40
2019-02-26T00:49:58.476Z,11.35
2019-02-26T00:51:11.713Z,11.15
2019-02-26T00:52:28.156Z,9.90
2019-02-26T00:53:41.393Z,11.30
2019-02-26T00:54:57.599Z,11.15
2019-02-26T00:56:10.270Z,9.68
2019-02-26T00:57:29.467Z,11.43
2019-02-26T00:58:44.145Z,9.98
2019-02-26T00:59:57.798Z,9.40
2019-02-26T01:01:12.944Z,10.18
2019-02-26T01:02:26.222Z,9.78
2019-02-26T01:03:40.725Z,10.05
2019-02-26T01:04:54.641Z,9.93
2019-02-26T01:06:08.022Z,10.82
2019-02-26T01:07:22.099Z,9.93
2019-02-26T01:08:37.855Z,9.63
2019-02-26T01:09:52.405Z,10.32
2019-02-26T01:11:08.290Z,9.63
2019-02-26T01:12:21.292Z,9.70
2019-02-26T01:13:34.524Z,9.23
2019-02-26T01:14:50.227Z,9.48
2019-02-26T01:16:03.177Z,9.18
2019-02-26T01:17:18.843Z,10.13
2019-02-26T01:18:32.233Z,9.60
2019-02-26T01:19:46.187Z,10.30
2019-02-26T01:21:00.303Z,9.48
2019-02-26T01:22:14.365Z,9.63
2019-02-26T01:23:28.973Z,8.98
2019-02-26T01:24:42.296Z,9.33
2019-02-26T01:25:55.517Z,8.60
2019-02-26T01:27:09.032Z,9.23
2019-02-26T01:28:22.959Z,7.92
2019-02-26T01:29:37.209Z,8.70
2019-02-26T01:30:53.720Z,8.60
2019-02-26T01:32:08.916Z,8.30
2019-02-26T01:33:22.191Z,8.18
2019-02-26T01:34:35.341Z,7.97
2019-02-26T01:35:50.288Z,7.75
2019-02-26T01:37:05.524Z,8.35
2019-02-26T01:38:18.824Z,7.28
2019-02-26T01:39:38.098Z,7.70
2019-02-26T01:40:50.768Z,8.20
2019-02-26T01:42:03.633Z,7.78
2019-02-26T01:43:17.081Z,7.50
2019-02-26T01:44:32.512Z,7.92
2019-02-26T01:45:46.185Z,7.50
2019-02-26T01:47:03.022Z,7.33
2019-02-26T01:48:18.530Z,6.78
2019-02-26T01:49:31.658Z,7.70
2019-02-26T01:50:44.880Z,7.50
2019-02-26T01:51:58.101Z,7.15
2019-02-26T01:53:12.187Z,6.60
2019-02-26T01:54:28.101Z,7.08
2019-02-26T01:55:42.157Z,7.05
2019-02-26T01:56:56.184Z,7.65
2019-02-26T01:58:11.029Z,8.05
2019-02-26T01:59:24.261Z,7.40
2019-02-26T02:00:38.679Z,7.17
2019-02-26T02:01:55.946Z,7.00
2019-02-26T02:03:08.997Z,6.60
2019-02-26T02:04:22.229Z,6.42
2019-02-26T02:05:35.460Z,7.37
2019-02-26T02:06:48.680Z,6.35
2019-02-26T02:08:01.897Z,7.40
2019-02-26T02:09:16.387Z,6.53
2019-02-26T02:10:30.081Z,6.87
2019-02-26T02:11:43.986Z,6.40
2019-02-26T02:12:59.558Z,6.85
2019-02-26T02:14:13.160Z,6.45
2019-02-26T02:15:27.343Z,6.00
2019-02-26T02:16:40.569Z,6.17
2019-02-26T02:17:57.026Z,5.35
2019-02-26T02:19:18.004Z,7.17
2019-02-26T02:20:30.380Z,6.78
2019-02-26T02:21:43.605Z,5.70
2019-02-26T02:22:58.141Z,6.45
2019-02-26T02:24:14.705Z,6.20
2019-02-26T02:25:29.043Z,7.30
2019-02-26T02:26:45.291Z,6.08
2019-02-26T02:27:57.458Z,5.20
2019-02-26T02:29:12.865Z,5.40
2019-02-26T02:30:30.409Z,6.20
2019-02-26T02:31:41.500Z,6.20
2019-02-26T02:32:57.039Z,5.75
2019-02-26T02:34:09.666Z,5.60
2019-02-26T02:35:22.909Z,5.65
2019-02-26T02:36:36.112Z,4.95
2019-02-26T02:37:51.419Z,5.72
2019-02-26T02:39:10.379Z,5.60
2019-02-26T02:40:20.642Z,5.85
2019-02-26T02:41:33.871Z,5.30
2019-02-26T02:42:49.118Z,5.10
2019-02-26T02:44:02.729Z,5.70
2019-02-26T02:45:19.701Z,5.37
2019-02-26T02:46:30.893Z,4.70
2019-02-26T02:47:44.113Z,5.10
2019-02-26T02:48:57.327Z,6.67
2019-02-26T02:50:14.569Z,6.25
2019-02-26T02:51:28.175Z,5.83
2019-02-26T02:52:42.790Z,5.90
2019-02-26T02:53:57.311Z,5.70
2019-02-26T02:55:13.897Z,5.70
2019-02-26T02:56:26.438Z,5.53
2019-02-26T02:57:39.658Z,5.95
2019-02-26T02:58:54.852Z,5.50
2019-02-26T03:00:13.217Z,6.17
2019-02-26T03:01:28.638Z,5.62
2019-02-26T03:02:43.251Z,5.33
2019-02-26T03:03:58.413Z,6.25
2019-02-26T03:05:12.312Z,5.90
2019-02-26T03:06:28.095Z,5.50
2019-02-26T03:07:42.402Z,5.40
2019-02-26T03:08:55.428Z,5.67
2019-02-26T03:10:12.959Z,5.80
2019-02-26T03:11:26.920Z,6.60
2019-02-26T03:12:40.155Z,5.37
2019-02-26T03:13:53.950Z,5.62
2019-02-26T03:15:12.661Z,5.75
2019-02-26T03:16:27.167Z,5.20
2019-02-26T03:17:42.361Z,5.42
2019-02-26T03:18:55.582Z,4.75
2019-02-26T03:20:10.917Z,5.03
2019-02-26T03:21:24.740Z,4.92
2019-02-26T03:22:42.231Z,5.55
2019-02-26T03:23:54.265Z,5.58
2019-02-26T03:25:14.888Z,5.08
2019-02-26T03:26:28.697Z,5.45
2019-02-26T03:27:42.652Z,6.12
2019-02-26T03:28:56.142Z,6.20
2019-02-26T03:30:26.401Z,5.45
2019-02-26T03:31:35.249Z,5.67
2019-02-26T03:32:52.101Z,5.60
2019-02-26T03:34:08.883Z,6.30
2019-02-26T03:35:19.502Z,5.12
2019-02-26T03:36:37.372Z,5.78
2019-02-26T03:37:54.087Z,5.42
2019-02-26T03:39:06.401Z,5.20
2019-02-26T03:40:20.925Z,5.10
2019-02-26T03:41:34.560Z,5.20
2019-02-26T03:42:47.785Z,5.60
2019-02-26T03:44:05.829Z,5.10
2019-02-26T03:45:23.919Z,5.20
2019-02-26T03:46:34.429Z,4.75
2019-02-26T03:47:47.658Z,4.30
2019-02-26T03:49:02.680Z,3.75
2019-02-26T03:50:17.438Z,5.47
2019-02-26T03:51:30.690Z,4.87
2019-02-26T03:52:44.444Z,4.92
2019-02-26T03:53:57.896Z,5.42
2019-02-26T03:55:12.107Z,5.70
2019-02-26T03:56:26.293Z,6.10
2019-02-26T03:57:43.596Z,5.50
2019-02-26T03:58:57.120Z,5.58
2019-02-26T04:00:17.421Z,5.33
2019-02-26T04:01:30.490Z,6.40
2019-02-26T04:02:47.647Z,5.17
2019-02-26T04:03:59.877Z,4.83
2019-02-26T04:05:14.726Z,5.40
2019-02-26T04:06:27.953Z,4.85
2019-02-26T04:07:41.241Z,5.15
2019-02-26T04:08:55.945Z,6.00
2019-02-26T04:10:10.209Z,5.53
2019-02-26T04:11:25.624Z,5.70
2019-02-26T04:12:41.895Z,5.78
2019-02-26T04:13:54.558Z,5.40
2019-02-26T04:15:19.064Z,5.55
2019-02-26T04:16:35.159Z,5.37
2019-02-26T04:17:47.485Z,4.53
2019-02-26T04:19:01.000Z,6.10
2019-02-26T04:20:14.913Z,5.45
2019-02-26T04:21:47.377Z,5.35
2019-02-26T04:23:00.597Z,4.62
2019-02-26T04:24:13.824Z,4.55
2019-02-26T04:25:54.701Z,5.03
2019-02-26T04:27:23.276Z,5.70
2019-02-26T04:28:49.070Z,5.47
2019-02-26T04:30:34.026Z,5.17
2019-02-26T04:31:57.671Z,5.30
2019-02-26T04:33:32.842Z,5.87
2019-02-26T04:34:54.136Z,5.85
2019-02-26T04:36:20.296Z,5.37
2019-02-26T04:37:40.214Z,5.60
2019-02-26T04:39:15.863Z,5.12
2019-02-26T04:40:30.399Z,7.12
2019-02-26T04:41:57.033Z,5.35
2019-02-26T04:43:36.359Z,6.53
2019-02-26T04:45:10.591Z,5.15
2019-02-26T04:46:28.853Z,5.28
2019-02-26T04:47:51.060Z,5.72
2019-02-26T04:49:03.380Z,5.67
2019-02-26T04:50:16.608Z,5.30
2019-02-26T04:51:29.817Z,5.45
2019-02-26T04:52:43.617Z,4.97
2019-02-26T04:53:59.474Z,5.22
2019-02-26T04:55:11.889Z,5.22
2019-02-26T04:56:25.112Z,4.05
2019-02-26T04:57:42.095Z,4.53
2019-02-26T04:58:53.525Z,4.53
2019-02-26T05:00:10.491Z,5.55
2019-02-26T05:01:23.152Z,4.97
2019-02-26T05:02:36.365Z,5.17
2019-02-26T05:03:50.314Z,4.45
2019-02-26T05:05:03.777Z,4.35
2019-02-26T05:06:18.172Z,4.37
2019-02-26T05:07:32.901Z,4.42
2019-02-26T05:08:46.190Z,4.55
2019-02-26T05:10:01.937Z,4.67
2019-02-26T05:11:19.046Z,5.03
2019-02-26T05:12:31.648Z,4.80
2019-02-26T05:13:44.247Z,5.50
2019-02-26T05:14:57.463Z,5.10
2019-02-26T05:16:10.736Z,5.50
2019-02-26T05:17:26.925Z,4.80
2019-02-26T05:18:40.593Z,4.70
2019-02-26T05:19:53.808Z,5.80
2019-02-26T05:21:08.394Z,5.30
2019-02-26T05:22:22.842Z,6.05
2019-02-26T05:23:36.940Z,5.15
2019-02-26T05:24:50.734Z,6.70
2019-02-26T05:26:08.219Z,6.12
2019-02-26T05:27:24.684Z,6.28
2019-02-26T05:28:37.901Z,5.65
2019-02-26T05:29:54.520Z,5.67
2019-02-26T05:31:09.034Z,5.53
2019-02-26T05:32:24.075Z,5.42
2019-02-26T05:33:36.856Z,5.30
2019-02-26T05:34:50.847Z,5.70
2019-02-26T05:36:08.857Z,5.80
2019-02-26T05:37:22.266Z,5.15
2019-02-26T05:38:37.520Z,5.45
2019-02-26T05:39:51.825Z,5.72
2019-02-26T05:41:05.660Z,5.65
2019-02-26T05:42:18.887Z,5.37
2019-02-26T05:43:33.974Z,5.67
2019-02-26T05:44:47.060Z,6.12
2019-02-26T05:46:03.614Z,5.92
2019-02-26T05:47:16.683Z,6.03
2019-02-26T05:48:30.164Z,5.85
2019-02-26T05:49:45.840Z,6.58
2019-02-26T05:51:00.872Z,5.70
2019-02-26T05:52:13.277Z,5.67
2019-02-26T05:53:26.498Z,5.60
2019-02-26T05:54:39.724Z,5.50
2019-02-26T05:55:54.082Z,5.83
2019-02-26T05:57:11.029Z,6.22
2019-02-26T05:58:22.846Z,5.72
2019-02-26T05:59:36.081Z,5.20
2019-02-26T06:00:49.305Z,6.55
2019-02-26T06:02:02.529Z,5.35
2019-02-26T06:03:18.554Z,5.60
2019-02-26T06:04:32.076Z,5.47
2019-02-26T06:05:46.536Z,5.92
2019-02-26T06:07:02.172Z,5.22
2019-02-26T06:08:15.777Z,5.55
2019-02-26T06:09:32.932Z,5.67
2019-02-26T06:10:43.941Z,5.65
2019-02-26T06:11:57.166Z,5.35
2019-02-26T06:13:12.883Z,4.87
2019-02-26T06:14:27.557Z,6.08
2019-02-26T06:15:41.319Z,5.30
2019-02-26T06:16:55.782Z,6.12
2019-02-26T06:18:09.144Z,5.90
2019-02-26T06:19:42.309Z,5.70
2019-02-26T06:20:58.457Z,5.53
2019-02-26T06:22:14.438Z,5.60
2019-02-26T06:23:28.055Z,6.47
2019-02-26T06:24:41.245Z,6.33
2019-02-26T06:25:57.782Z,5.05
2019-02-26T06:27:13.077Z,5.75
2019-02-26T06:28:25.489Z,5.03
2019-02-26T06:29:38.947Z,4.85
2019-02-26T06:30:52.427Z,5.97
2019-02-26T06:32:09.532Z,6.40
2019-02-26T06:33:23.854Z,5.55
2019-02-26T06:34:37.129Z,7.90
2019-02-26T06:35:50.373Z,5.95
2019-02-26T06:37:17.608Z,8.05
2019-02-26T06:38:32.798Z,8.58
2019-02-26T06:39:50.613Z,6.90
2019-02-26T06:41:02.437Z,7.40
2019-02-26T06:42:15.668Z,8.43
2019-02-26T06:43:30.861Z,6.10
2019-02-26T06:44:46.432Z,7.15
2019-02-26T06:46:00.268Z,7.22
2019-02-26T06:47:13.980Z,5.78
2019-02-26T06:48:29.644Z,6.47
2019-02-26T06:49:43.331Z,6.12
2019-02-26T06:50:58.196Z,5.72
2019-02-26T06:52:13.017Z,6.00
2019-02-26T06:53:27.253Z,6.80
2019-02-26T06:54:40.476Z,6.33
2019-02-26T06:55:53.697Z,6.25
2019-02-26T06:57:06.921Z,5.87
2019-02-26T06:58:24.646Z,6.15
2019-02-26T06:59:37.865Z,5.40
2019-02-26T07:00:55.152Z,7.15
2019-02-26T07:02:06.116Z,6.78
2019-02-26T07:03:19.337Z,7.10
2019-02-26T07:04:32.569Z,6.17
2019-02-26T07:05:46.599Z,6.87
2019-02-26T07:07:01.820Z,6.12
2019-02-26T07:08:14.826Z,7.35
2019-02-26T07:09:28.051Z,6.37
2019-02-26T07:10:41.293Z,6.83
2019-02-26T07:11:56.139Z,7.65
2019-02-26T07:13:11.807Z,6.47
2019-02-26T07:14:27.232Z,6.50
2019-02-26T07:15:40.212Z,5.90
2019-02-26T07:16:53.447Z,6.62
2019-02-26T07:18:07.691Z,5.80
2019-02-26T07:19:22.190Z,6.75
2019-02-26T07:20:39.487Z,7.60
2019-02-26T07:21:52.619Z,6.50
2019-02-26T07:23:05.885Z,7.25
2019-02-26T07:24:22.489Z,7.75
2019-02-26T07:25:37.003Z,6.45
2019-02-26T07:26:50.153Z,6.55
2019-02-26T07:28:03.391Z,6.62
2019-02-26T07:29:17.551Z,7.42
2019-02-26T07:30:32.640Z,6.75
2019-02-26T07:31:47.322Z,7.60
2019-02-26T07:33:02.936Z,7.03
2019-02-26T07:34:18.153Z,6.87
2019-02-26T07:35:32.677Z,7.50
2019-02-26T07:36:47.817Z,7.08
2019-02-26T07:38:01.254Z,6.83
2019-02-26T07:39:17.705Z,7.05
2019-02-26T07:40:32.885Z,6.85
2019-02-26T07:41:47.096Z,6.85
2019-02-26T07:43:04.952Z,7.62
2019-02-26T07:44:18.854Z,8.15
2019-02-26T07:45:32.269Z,8.13
2019-02-26T07:46:45.596Z,10.08
2019-02-26T07:48:00.854Z,8.40
2019-02-26T07:49:13.761Z,8.15
2019-02-26T07:50:31.279Z,9.55
2019-02-26T07:51:43.034Z,7.35
2019-02-26T07:52:57.606Z,7.15
2019-02-26T07:54:12.889Z,7.17
2019-02-26T07:55:27.564Z,6.92
2019-02-26T07:56:41.290Z,7.33
2019-02-26T07:57:54.516Z,7.55
2019-02-26T07:59:09.912Z,6.50
2019-02-26T08:00:23.830Z,6.83
2019-02-26T08:01:37.583Z,7.75
2019-02-26T08:02:56.454Z,6.72
2019-02-26T08:04:11.078Z,6.97
2019-02-26T08:05:26.798Z,6.67
2019-02-26T08:06:39.401Z,6.08
2019-02-26T08:07:55.796Z,6.87
2019-02-26T08:09:11.550Z,6.67
2019-02-26T08:10:23.342Z,6.15
2019-02-26T08:11:38.630Z,6.08
2019-02-26T08:12:51.749Z,6.67
2019-02-26T08:14:06.981Z,6.30
2019-02-26T08:15:20.212Z,6.67
2019-02-26T08:16:33.660Z,7.08
2019-02-26T08:17:50.214Z,5.92
2019-02-26T08:19:01.874Z,7.75
2019-02-26T08:20:15.165Z,7.22
2019-02-26T08:21:29.676Z,6.62
2019-02-26T08:22:43.003Z,7.35
2019-02-26T08:23:56.222Z,7.10
2019-02-26T08:25:11.346Z,7.58
2019-02-26T08:26:26.637Z,6.60
2019-02-26T08:27:39.537Z,5.78
2019-02-26T08:28:53.010Z,5.00
2019-02-26T08:30:14.494Z,5.70
2019-02-26T08:31:28.245Z,5.97
2019-02-26T08:32:41.481Z,5.55
2019-02-26T08:33:54.720Z,5.83
2019-02-26T08:35:09.705Z,5.55
2019-02-26T08:36:22.939Z,5.53
2019-02-26T08:37:36.163Z,5.40
2019-02-26T08:38:49.633Z,5.62
2019-02-26T08:40:06.277Z,4.87
2019-02-26T08:41:19.505Z,5.25
2019-02-26T08:42:32.728Z,5.10
2019-02-26T08:43:47.105Z,5.25
2019-02-26T08:45:01.241Z,4.80
2019-02-26T08:46:16.703Z,5.80
2019-02-26T08:47:30.601Z,5.67
2019-02-26T08:48:46.623Z,5.58
2019-02-26T08:50:01.679Z,5.90
2019-02-26T08:51:16.895Z,7.12
2019-02-26T08:52:29.534Z,5.80
2019-02-26T08:53:44.547Z,5.72
2019-02-26T08:54:58.540Z,5.22
2019-02-26T08:56:11.764Z,5.42
2019-02-26T08:57:24.991Z,5.60
2019-02-26T08:58:41.117Z,5.50
2019-02-26T08:59:55.058Z,5.55
2019-02-26T09:01:08.300Z,6.28
2019-02-26T09:02:21.766Z,5.67
2019-02-26T09:03:40.772Z,5.37
2019-02-26T09:04:50.688Z,5.05
2019-02-26T09:06:12.814Z,5.33
2019-02-26T09:07:19.621Z,5.25
2019-02-26T09:08:35.637Z,5.75
2019-02-26T09:09:50.124Z,5.45
2019-02-26T09:11:05.726Z,5.42
2019-02-26T09:12:19.927Z,5.10
2019-02-26T09:13:36.177Z,5.47
2019-02-26T09:14:49.982Z,5.37
2019-02-26T09:16:05.531Z,5.15
2019-02-26T09:17:20.887Z,5.42
2019-02-26T09:18:37.495Z,5.20
2019-02-26T09:19:50.281Z,4.85
2019-02-26T09:21:03.133Z,5.05
2019-02-26T09:22:19.293Z,5.42
2019-02-26T09:23:32.862Z,4.53
2019-02-26T09:24:46.878Z,4.85
2019-02-26T09:26:02.600Z,4.87
2019-02-26T09:27:17.905Z,5.20
2019-02-26T09:28:32.085Z,4.70
2019-02-26T09:29:50.953Z,4.67
2019-02-26T09:31:03.723Z,7.15
2019-02-26T09:32:16.557Z,6.35
2019-02-26T09:33:32.992Z,5.37
2019-02-26T09:34:47.341Z,5.50
2019-02-26T09:36:00.801Z,4.87
2019-02-26T09:37:14.297Z,4.33
2019-02-26T09:38:27.514Z,4.70
2019-02-26T09:39:40.738Z,5.40
2019-02-26T09:40:54.687Z,4.58
2019-02-26T09:42:09.323Z,5.20
2019-02-26T09:43:24.518Z,5.45
2019-02-26T09:44:37.799Z,4.53
2019-02-26T09:45:52.909Z,4.87
2019-02-26T09:47:07.857Z,5.30
2019-02-26T09:48:21.941Z,6.42
2019-02-26T09:49:35.845Z,5.45
2019-02-26T09:50:50.337Z,4.92
2019-02-26T09:52:06.712Z,5.10
2019-02-26T09:53:21.781Z,5.62
2019-02-26T09:54:40.425Z,5.12
2019-02-26T09:55:51.450Z,4.42
2019-02-26T09:57:04.697Z,4.33
2019-02-26T09:58:18.600Z,4.17
2019-02-26T09:59:35.447Z,4.95
2019-02-26T10:00:50.926Z,8.23
2019-02-26T10:02:05.577Z,4.55
2019-02-26T10:03:18.578Z,3.50
2019-02-26T10:04:31.931Z,4.45
2019-02-26T10:05:48.187Z,5.10
2019-02-26T10:07:02.323Z,4.45
2019-02-26T10:08:17.347Z,4.10
2019-02-26T10:09:34.875Z,4.65
2019-02-26T10:10:47.858Z,3.83
2019-02-26T10:12:02.855Z,4.60
2019-02-26T10:13:18.270Z,3.77
2019-02-26T10:14:35.870Z,5.85
2019-02-26T10:15:49.821Z,4.75
2019-02-26T10:17:03.283Z,4.30
2019-02-26T10:18:21.161Z,4.83
2019-02-26T10:19:35.796Z,5.17
2019-02-26T10:20:50.435Z,4.62
2019-02-26T10:22:09.061Z,4.33
2019-02-26T10:23:24.013Z,4.72
2019-02-26T10:24:40.439Z,4.80
2019-02-26T10:25:57.453Z,5.65
2019-02-26T10:27:09.321Z,4.03
2019-02-26T10:28:23.455Z,3.87
2019-02-26T10:29:39.880Z,3.70
2019-02-26T10:30:55.080Z,3.67
2019-02-26T10:32:11.224Z,4.25
2019-02-26T10:33:24.932Z,3.98
2019-02-26T10:34:38.161Z,3.47
2019-02-26T10:35:51.387Z,4.20
2019-02-26T10:37:04.617Z,4.67
2019-02-26T10:38:18.105Z,4.10
2019-02-26T10:39:33.713Z,4.10
2019-02-26T10:40:53.969Z,4.15
2019-02-26T10:42:02.770Z,4.10
2019-02-26T10:43:16.044Z,4.33
2019-02-26T10:44:29.269Z,3.58
2019-02-26T10:45:44.810Z,4.10
2019-02-26T10:47:00.692Z,3.50
2019-02-26T10:48:16.843Z,3.75
2019-02-26T10:49:31.925Z,3.92
2019-02-26T10:50:49.219Z,4.58
2019-02-26T10:52:01.060Z,4.62
2019-02-26T10:53:18.948Z,3.98
2019-02-26T10:54:34.600Z,12.58
2019-02-26T10:55:45.729Z,5.28
2019-02-26T10:57:00.346Z,5.58
2019-02-26T10:58:13.941Z,8.23
2019-02-26T10:59:27.306Z,4.90
2019-02-26T11:00:41.158Z,4.72
2019-02-26T11:01:55.270Z,4.85
2019-02-26T11:03:12.186Z,5.20
2019-02-26T11:04:34.481Z,4.30
2019-02-26T11:05:42.622Z,4.62
2019-02-26T11:07:11.525Z,4.20
2019-02-26T11:08:29.006Z,4.55
2019-02-26T11:09:40.922Z,4.87
2019-02-26T11:10:54.155Z,4.10
2019-02-26T11:12:08.583Z,4.60
2019-02-26T11:13:25.570Z,5.00
2019-02-26T11:14:39.725Z,4.25
2019-02-26T11:15:53.961Z,4.50
2019-02-26T11:17:07.533Z,4.50
2019-02-26T11:18:23.252Z,4.53
2019-02-26T11:19:38.639Z,5.45
2019-02-26T11:20:52.820Z,6.25
2019-02-26T11:22:05.636Z,4.80
2019-02-26T11:23:30.102Z,4.60
2019-02-26T11:24:36.164Z,4.55
2019-02-26T11:25:49.592Z,3.30
2019-02-26T11:27:02.819Z,3.52
2019-02-26T11:28:16.049Z,3.70
2019-02-26T11:29:30.459Z,3.55
2019-02-26T11:30:46.230Z,4.03
2019-02-26T11:32:01.726Z,4.35
2019-02-26T11:33:15.606Z,5.85
2019-02-26T11:34:32.783Z,5.20
2019-02-26T11:35:46.300Z,4.95
2019-02-26T11:37:02.758Z,5.12
2019-02-26T11:38:14.927Z,6.55
2019-02-26T11:39:29.042Z,5.03
2019-02-26T11:40:42.265Z,4.28
2019-02-26T11:41:58.643Z,4.47
2019-02-26T11:43:14.324Z,4.25
2019-02-26T11:44:27.723Z,4.87
2019-02-26T11:45:44.424Z,3.90
2019-02-26T11:46:58.288Z,5.00
2019-02-26T11:48:11.594Z,4.55
2019-02-26T11:49:26.955Z,4.47
2019-02-26T11:50:44.267Z,3.90
2019-02-26T11:51:55.132Z,6.70
2019-02-26T11:53:09.887Z,8.88
2019-02-26T11:54:23.293Z,3.52
2019-02-26T11:55:37.429Z,4.08
2019-02-26T11:56:52.518Z,3.92
2019-02-26T11:58:10.035Z,3.83
2019-02-26T11:59:20.815Z,3.95
2019-02-26T12:00:42.769Z,3.85
2019-02-26T12:01:58.955Z,4.33
2019-02-26T12:03:11.530Z,3.58
2019-02-26T12:04:25.025Z,3.80
2019-02-26T12:05:41.264Z,3.65
2019-02-26T12:06:53.463Z,3.02
2019-02-26T12:08:06.688Z,2.85
2019-02-26T12:09:19.929Z,3.58
2019-02-26T12:10:35.881Z,3.27
2019-02-26T12:11:48.425Z,3.25
2019-02-26T12:13:02.239Z,3.00
2019-02-26T12:14:16.931Z,4.33
2019-02-26T12:15:35.288Z,3.70
2019-02-26T12:16:45.941Z,3.20
2019-02-26T12:17:59.169Z,2.80
2019-02-26T12:19:12.400Z,2.60
2019-02-26T12:20:25.634Z,2.90
2019-02-26T12:21:38.852Z,2.87
2019-02-26T12:22:53.062Z,3.10
2019-02-26T12:24:09.290Z,2.50
2019-02-26T12:25:22.065Z,2.80
2019-02-26T12:26:35.301Z,2.50
2019-02-26T12:27:48.516Z,2.62
2019-02-26T12:29:02.537Z,2.87
2019-02-26T12:30:21.379Z,2.77
2019-02-26T12:31:36.532Z,2.90
2019-02-26T12:32:50.524Z,2.40
2019-02-26T12:34:04.497Z,2.77
2019-02-26T12:35:18.042Z,2.90
2019-02-26T12:36:32.763Z,2.58
2019-02-26T12:37:47.319Z,2.80
2019-02-26T12:39:03.397Z,2.85
2019-02-26T12:40:19.358Z,2.85
2019-02-26T12:41:35.871Z,2.40
2019-02-26T12:42:47.470Z,2.37
2019-02-26T12:44:02.065Z,2.47
2019-02-26T12:45:26.150Z,3.22
2019-02-26T12:46:38.447Z,2.85
2019-02-26T12:47:53.093Z,3.25
2019-02-26T12:49:08.745Z,3.08
2019-02-26T12:50:28.989Z,3.15
2019-02-26T12:51:38.988Z,2.80
2019-02-26T12:52:53.890Z,2.80
2019-02-26T12:54:10.039Z,4.58
2019-02-26T12:55:28.624Z,3.83
2019-02-26T12:56:37.476Z,2.65
2019-02-26T12:57:52.678Z,2.60
2019-02-26T12:59:07.086Z,2.30
2019-02-26T13:00:24.337Z,2.98
2019-02-26T13:01:39.784Z,2.70
2019-02-26T13:02:52.793Z,2.42
2019-02-26T13:04:06.831Z,2.33
2019-02-26T13:05:22.930Z,3.37
2019-02-26T13:06:38.289Z,2.80
2019-02-26T13:07:50.861Z,2.60
2019-02-26T13:09:06.076Z,2.90
2019-02-26T13:10:24.871Z,2.92
2019-02-26T13:11:38.102Z,2.90
2019-02-26T13:12:54.995Z,2.77
2019-02-26T13:14:06.293Z,3.60
2019-02-26T13:15:20.561Z,3.70
2019-02-26T13:16:33.785Z,4.00
2019-02-26T13:17:48.868Z,2.12
2019-02-26T13:19:04.675Z,3.08
2019-02-26T13:20:24.381Z,2.80
2019-02-26T13:21:42.591Z,2.83
2019-02-26T13:22:56.479Z,2.22
2019-02-26T13:24:14.250Z,2.00
2019-02-26T13:25:26.384Z,4.15
2019-02-26T13:26:42.410Z,2.20
2019-02-26T13:27:53.965Z,1.98
2019-02-26T13:29:07.201Z,2.92
2019-02-26T13:30:27.676Z,2.77
2019-02-26T13:31:42.577Z,2.47
2019-02-26T13:33:00.440Z,2.87
2019-02-26T13:34:13.981Z,2.37
2019-02-26T13:35:25.734Z,2.58
2019-02-26T13:36:42.573Z,2.62
2019-02-26T13:37:56.292Z,2.98
2019-02-26T13:39:09.516Z,3.02
2019-02-26T13:40:26.226Z,3.65
2019-02-26T13:41:39.450Z,4.03
2019-02-26T13:44:07.610Z,3.12
2019-02-26T13:45:23.216Z,2.98
2019-02-26T13:46:36.438Z,3.05
2019-02-26T13:47:49.741Z,3.02
2019-02-26T13:49:02.975Z,2.98
2019-02-26T13:50:26.716Z,3.22
2019-02-26T13:51:39.953Z,2.47
2019-02-26T13:52:53.184Z,2.70
2019-02-26T13:54:06.411Z,3.00
2019-02-26T13:55:19.633Z,3.10
2019-02-26T13:56:32.860Z,3.50
2019-02-26T13:57:46.157Z,3.50
2019-02-26T13:58:59.384Z,3.40
2019-02-26T14:00:14.587Z,3.10
2019-02-26T14:01:27.817Z,3.30
2019-02-26T14:02:41.052Z,4.08
2019-02-26T14:03:54.275Z,3.35
2019-02-26T14:05:10.588Z,3.17
2019-02-26T14:06:25.449Z,2.65
2019-02-26T14:07:38.857Z,2.05
2019-02-26T14:08:52.108Z,2.30
2019-02-26T14:10:19.329Z,1.82
2019-02-26T14:11:32.570Z,1.70
2019-02-26T14:12:45.793Z,1.57
2019-02-26T14:13:59.026Z,1.82
2019-02-26T14:15:15.212Z,2.02
2019-02-26T14:16:32.523Z,2.12
2019-02-26T14:17:43.401Z,1.37
2019-02-26T14:19:00.142Z,3.10
2019-02-26T14:20:13.390Z,3.05
2019-02-26T14:21:27.319Z,2.27
2019-02-26T14:22:40.533Z,2.50
2019-02-26T14:23:53.777Z,2.30
2019-02-26T14:25:09.913Z,4.12
2019-02-26T14:26:23.141Z,2.67
2019-02-26T14:27:36.368Z,2.65
2019-02-26T14:28:49.610Z,2.22
2019-02-26T14:30:04.646Z,2.65
2019-02-26T14:31:17.870Z,2.72
2019-02-26T14:32:31.098Z,2.60
2019-02-26T14:33:44.328Z,2.60
2019-02-26T14:34:57.549Z,2.70
2019-02-26T14:36:10.783Z,2.35
2019-02-26T14:37:24.005Z,2.20
2019-02-26T14:38:37.229Z,2.33
2019-02-26T14:39:50.479Z,2.40
2019-02-26T14:41:03.698Z,2.30
2019-02-26T14:42:16.920Z,2.08
2019-02-26T14:43:30.153Z,1.98
2019-02-26T14:44:43.572Z,3.02
2019-02-26T14:45:56.803Z,2.55
2019-02-26T14:47:10.044Z,2.60
2019-02-26T14:48:23.261Z,2.60
2019-02-26T14:49:36.482Z,2.15
2019-02-26T14:50:49.712Z,2.20
2019-02-26T14:52:02.942Z,2.30
2019-02-26T14:53:16.169Z,2.35
2019-02-26T14:54:29.393Z,2.67
2019-02-26T14:55:42.657Z,3.10
2019-02-26T14:56:55.892Z,2.95
2019-02-26T14:58:09.293Z,2.60
2019-02-26T14:59:22.551Z,2.90
2019-02-26T15:00:35.775Z,3.20
2019-02-26T15:01:49.024Z,2.90
2019-02-26T15:03:02.245Z,2.70
2019-02-26T15:04:15.479Z,3.10
2019-02-26T15:05:28.696Z,3.17
2019-02-26T15:06:41.931Z,3.15
2019-02-26T15:07:55.164Z,3.42
2019-02-26T15:09:09.330Z,3.83
2019-02-26T15:10:25.322Z,3.40
2019-02-26T15:11:38.836Z,3.22
2019-02-26T15:12:52.070Z,3.83
2019-02-26T15:14:05.284Z,3.77
2019-02-26T15:15:18.981Z,3.85
2019-02-26T15:16:32.261Z,3.58
2019-02-26T15:17:45.494Z,3.92
2019-02-26T15:18:58.727Z,3.67
2019-02-26T15:20:15.276Z,4.87
2019-02-26T15:21:28.526Z,4.22
2019-02-26T15:22:43.127Z,4.25
2019-02-26T15:23:56.355Z,5.53
2019-02-26T15:25:15.233Z,3.60
2019-02-26T15:26:28.462Z,5.72
2019-02-26T15:27:41.950Z,4.58
2019-02-26T15:28:56.341Z,4.25
2019-02-26T15:30:13.985Z,4.85
2019-02-26T15:31:27.221Z,4.50
2019-02-26T15:32:40.441Z,4.03
2019-02-26T15:33:53.670Z,3.70
2019-02-26T15:35:06.902Z,4.42
2019-02-26T15:36:20.123Z,4.08
2019-02-26T15:37:33.527Z,3.75
2019-02-26T15:38:46.754Z,4.55
2019-02-26T15:40:00.002Z,5.65
2019-02-26T15:41:13.229Z,5.90
2019-02-26T15:42:26.681Z,4.80
2019-02-26T15:43:39.949Z,3.83
2019-02-26T15:44:53.180Z,3.80
2019-02-26T15:46:06.406Z,3.87
2019-02-26T15:47:20.331Z,4.75
2019-02-26T15:48:33.716Z,4.50
2019-02-26T15:49:48.539Z,4.53
2019-02-26T15:51:03.995Z,4.03
2019-02-26T15:52:16.989Z,3.20
2019-02-26T15:53:31.283Z,3.85
2019-02-26T15:54:44.561Z,3.90
2019-02-26T15:55:59.477Z,5.12
2019-02-26T15:57:13.876Z,4.42
2019-02-26T15:58:27.108Z,4.40
2019-02-26T15:59:40.361Z,4.42
2019-02-26T16:00:53.585Z,4.80
2019-02-26T16:02:08.445Z,4.03
2019-02-26T16:03:21.661Z,4.12
2019-02-26T16:04:35.169Z,3.87
2019-02-26T16:05:48.402Z,4.40
2019-02-26T16:07:01.637Z,4.40
2019-02-26T16:08:14.873Z,4.92
2019-02-26T16:09:28.105Z,4.50
2019-02-26T16:10:41.329Z,4.05
2019-02-26T16:11:54.552Z,4.25
2019-02-26T16:13:07.773Z,3.85
2019-02-26T16:14:21.021Z,3.87
2019-02-26T16:15:38.694Z,4.20
2019-02-26T16:16:51.937Z,4.05
2019-02-26T16:18:05.438Z,4.03
2019-02-26T16:19:20.212Z,5.22
2019-02-26T16:20:33.449Z,4.50
2019-02-26T16:21:46.677Z,4.33
2019-02-26T16:22:59.909Z,4.00
2019-02-26T16:24:13.432Z,4.35
2019-02-26T16:25:26.662Z,4.22
2019-02-26T16:26:40.979Z,4.50
2019-02-26T16:27:54.865Z,3.85
2019-02-26T16:29:08.093Z,4.17
2019-02-26T16:30:22.869Z,4.12
2019-02-26T16:31:36.377Z,3.62
2019-02-26T16:32:49.599Z,3.70
2019-02-26T16:34:02.821Z,4.58
2019-02-26T16:35:16.056Z,4.28
2019-02-26T16:36:31.667Z,3.75